sensor_id;sensor_type;location;lat;lon;timestamp;P1;durP1;ratioP1;P2;durP2;ratioP2
64957;SDS011;51486;50.232;19.208;2023-08-12T00:00:47;9.23;;;4.23;;
64957;SDS011;51486;50.232;19.208;2023-08-12T00:03:13;7.07;;;4.30;;
64957;SDS011;51486;50.232;19.208;2023-08-12T00:05:38;7.90;;;4.83;;
64957;SDS011;51486;50.232;19.208;2023-08-12T00:08:05;7.67;;;4.50;;
64957;SDS011;51486;50.232;19.208;2023-08-12T00:10:30;8.13;;;5.03;;
64957;SDS011;51486;50.232;19.208;2023-08-12T00:12:56;9.27;;;4.40;;
64957;SDS011;51486;50.232;19.208;2023-08-12T00:15:21;8.80;;;4.73;;
64957;SDS011;51486;50.232;19.208;2023-08-12T00:17:47;11.40;;;3.90;;
64957;SDS011;51486;50.232;19.208;2023-08-12T00:20:12;8.23;;;4.30;;
64957;SDS011;51486;50.232;19.208;2023-08-12T00:22:38;7.70;;;3.90;;
64957;SDS011;51486;50.232;19.208;2023-08-12T00:25:04;6.20;;;3.90;;
64957;SDS011;51486;50.232;19.208;2023-08-12T00:27:30;10.27;;;4.27;;
64957;SDS011;51486;50.232;19.208;2023-08-12T00:29:56;7.97;;;4.17;;
64957;SDS011;51486;50.232;19.208;2023-08-12T00:32:21;8.13;;;4.03;;
64957;SDS011;51486;50.232;19.208;2023-08-12T00:34:46;9.30;;;4.73;;
64957;SDS011;51486;50.232;19.208;2023-08-12T00:37:12;9.37;;;4.33;;
64957;SDS011;51486;50.232;19.208;2023-08-12T00:39:37;8.03;;;3.73;;
64957;SDS011;51486;50.232;19.208;2023-08-12T00:42:03;7.80;;;4.20;;
64957;SDS011;51486;50.232;19.208;2023-08-12T00:44:28;6.13;;;3.80;;
64957;SDS011;51486;50.232;19.208;2023-08-12T00:46:53;7.77;;;4.43;;
64957;SDS011;51486;50.232;19.208;2023-08-12T00:49:20;10.50;;;5.27;;
64957;SDS011;51486;50.232;19.208;2023-08-12T00:51:46;5.60;;;3.77;;
64957;SDS011;51486;50.232;19.208;2023-08-12T00:54:16;8.07;;;4.03;;
64957;SDS011;51486;50.232;19.208;2023-08-12T00:56:42;7.53;;;4.40;;
64957;SDS011;51486;50.232;19.208;2023-08-12T00:59:08;8.77;;;4.20;;
64957;SDS011;51486;50.232;19.208;2023-08-12T01:01:35;8.80;;;4.23;;
64957;SDS011;51486;50.232;19.208;2023-08-12T01:04:04;6.67;;;3.93;;
64957;SDS011;51486;50.232;19.208;2023-08-12T01:06:30;4.33;;;3.00;;
64957;SDS011;51486;50.232;19.208;2023-08-12T01:08:55;6.10;;;3.60;;
64957;SDS011;51486;50.232;19.208;2023-08-12T01:11:24;7.30;;;4.10;;
64957;SDS011;51486;50.232;19.208;2023-08-12T01:14:02;7.17;;;3.87;;
64957;SDS011;51486;50.232;19.208;2023-08-12T01:16:32;7.23;;;3.53;;
64957;SDS011;51486;50.232;19.208;2023-08-12T01:19:02;7.83;;;4.17;;
64957;SDS011;51486;50.232;19.208;2023-08-12T01:21:30;7.00;;;4.30;;
64957;SDS011;51486;50.232;19.208;2023-08-12T01:23:57;11.03;;;4.27;;
64957;SDS011;51486;50.232;19.208;2023-08-12T01:26:23;6.37;;;4.27;;
64957;SDS011;51486;50.232;19.208;2023-08-12T01:28:48;7.23;;;3.40;;
64957;SDS011;51486;50.232;19.208;2023-08-12T01:34:06;10.03;;;5.00;;
64957;SDS011;51486;50.232;19.208;2023-08-12T01:36:39;6.63;;;3.83;;
64957;SDS011;51486;50.232;19.208;2023-08-12T01:39:07;6.33;;;4.03;;
64957;SDS011;51486;50.232;19.208;2023-08-12T01:41:35;6.60;;;3.77;;
64957;SDS011;51486;50.232;19.208;2023-08-12T01:44:01;13.87;;;4.17;;
64957;SDS011;51486;50.232;19.208;2023-08-12T01:46:27;6.27;;;3.80;;
64957;SDS011;51486;50.232;19.208;2023-08-12T01:48:53;6.33;;;3.63;;
64957;SDS011;51486;50.232;19.208;2023-08-12T01:51:18;6.13;;;4.10;;
64957;SDS011;51486;50.232;19.208;2023-08-12T01:53:43;5.80;;;3.60;;
64957;SDS011;51486;50.232;19.208;2023-08-12T01:56:09;7.13;;;3.93;;
64957;SDS011;51486;50.232;19.208;2023-08-12T01:58:34;6.33;;;3.87;;
64957;SDS011;51486;50.232;19.208;2023-08-12T02:01:00;5.93;;;3.77;;
64957;SDS011;51486;50.232;19.208;2023-08-12T02:03:25;6.23;;;4.33;;
64957;SDS011;51486;50.232;19.208;2023-08-12T02:05:50;7.07;;;4.03;;
64957;SDS011;51486;50.232;19.208;2023-08-12T02:08:16;7.40;;;4.33;;
64957;SDS011;51486;50.232;19.208;2023-08-12T02:10:41;9.10;;;4.10;;
64957;SDS011;51486;50.232;19.208;2023-08-12T02:13:06;8.13;;;4.23;;
64957;SDS011;51486;50.232;19.208;2023-08-12T02:15:32;9.50;;;4.30;;
64957;SDS011;51486;50.232;19.208;2023-08-12T02:17:57;6.40;;;3.77;;
64957;SDS011;51486;50.232;19.208;2023-08-12T02:20:23;10.00;;;3.80;;
64957;SDS011;51486;50.232;19.208;2023-08-12T02:22:49;9.40;;;4.33;;
64957;SDS011;51486;50.232;19.208;2023-08-12T02:25:14;6.50;;;4.20;;
64957;SDS011;51486;50.232;19.208;2023-08-12T02:27:40;5.63;;;3.90;;
64957;SDS011;51486;50.232;19.208;2023-08-12T02:30:06;8.40;;;4.03;;
64957;SDS011;51486;50.232;19.208;2023-08-12T02:32:32;6.20;;;3.50;;
64957;SDS011;51486;50.232;19.208;2023-08-12T02:34:57;8.77;;;3.87;;
64957;SDS011;51486;50.232;19.208;2023-08-12T02:37:22;7.63;;;3.80;;
64957;SDS011;51486;50.232;19.208;2023-08-12T02:39:48;5.57;;;4.27;;
64957;SDS011;51486;50.232;19.208;2023-08-12T02:42:13;9.37;;;3.97;;
64957;SDS011;51486;50.232;19.208;2023-08-12T02:44:38;6.60;;;3.70;;
64957;SDS011;51486;50.232;19.208;2023-08-12T02:47:04;5.90;;;4.07;;
64957;SDS011;51486;50.232;19.208;2023-08-12T02:49:29;11.03;;;3.97;;
64957;SDS011;51486;50.232;19.208;2023-08-12T02:51:55;7.67;;;3.53;;
64957;SDS011;51486;50.232;19.208;2023-08-12T02:54:20;7.63;;;3.63;;
64957;SDS011;51486;50.232;19.208;2023-08-12T02:56:45;5.00;;;3.40;;
64957;SDS011;51486;50.232;19.208;2023-08-12T02:59:11;17.57;;;4.77;;
64957;SDS011;51486;50.232;19.208;2023-08-12T03:01:36;8.97;;;3.73;;
64957;SDS011;51486;50.232;19.208;2023-08-12T03:04:01;7.23;;;4.10;;
64957;SDS011;51486;50.232;19.208;2023-08-12T03:06:27;7.30;;;4.23;;
64957;SDS011;51486;50.232;19.208;2023-08-12T03:08:52;6.77;;;4.13;;
64957;SDS011;51486;50.232;19.208;2023-08-12T03:11:18;9.77;;;3.60;;
64957;SDS011;51486;50.232;19.208;2023-08-12T03:13:44;9.37;;;3.80;;
64957;SDS011;51486;50.232;19.208;2023-08-12T03:16:13;8.13;;;4.10;;
64957;SDS011;51486;50.232;19.208;2023-08-12T03:18:39;6.43;;;3.83;;
64957;SDS011;51486;50.232;19.208;2023-08-12T03:21:08;7.10;;;3.87;;
64957;SDS011;51486;50.232;19.208;2023-08-12T03:23:37;6.13;;;3.70;;
64957;SDS011;51486;50.232;19.208;2023-08-12T03:26:03;5.87;;;3.53;;
64957;SDS011;51486;50.232;19.208;2023-08-12T03:28:29;6.93;;;3.47;;
64957;SDS011;51486;50.232;19.208;2023-08-12T03:30:55;6.37;;;4.07;;
64957;SDS011;51486;50.232;19.208;2023-08-12T03:33:20;7.83;;;4.00;;
64957;SDS011;51486;50.232;19.208;2023-08-12T03:35:46;12.60;;;4.20;;
64957;SDS011;51486;50.232;19.208;2023-08-12T03:38:13;7.93;;;4.80;;
64957;SDS011;51486;50.232;19.208;2023-08-12T03:40:39;5.80;;;4.30;;
64957;SDS011;51486;50.232;19.208;2023-08-12T03:43:04;6.70;;;4.23;;
64957;SDS011;51486;50.232;19.208;2023-08-12T03:45:30;6.43;;;4.27;;
64957;SDS011;51486;50.232;19.208;2023-08-12T03:47:55;6.30;;;3.80;;
64957;SDS011;51486;50.232;19.208;2023-08-12T03:50:21;10.73;;;4.90;;
64957;SDS011;51486;50.232;19.208;2023-08-12T03:52:46;9.17;;;4.50;;
64957;SDS011;51486;50.232;19.208;2023-08-12T03:55:11;9.03;;;4.47;;
64957;SDS011;51486;50.232;19.208;2023-08-12T03:57:37;6.67;;;4.17;;
64957;SDS011;51486;50.232;19.208;2023-08-12T04:00:03;6.73;;;4.30;;
64957;SDS011;51486;50.232;19.208;2023-08-12T04:02:29;10.60;;;4.23;;
64957;SDS011;51486;50.232;19.208;2023-08-12T04:04:54;8.27;;;4.37;;
64957;SDS011;51486;50.232;19.208;2023-08-12T04:07:20;8.73;;;3.73;;
64957;SDS011;51486;50.232;19.208;2023-08-12T04:09:45;8.60;;;3.90;;
64957;SDS011;51486;50.232;19.208;2023-08-12T04:12:11;6.73;;;4.37;;
64957;SDS011;51486;50.232;19.208;2023-08-12T04:14:36;9.03;;;3.77;;
64957;SDS011;51486;50.232;19.208;2023-08-12T04:17:01;9.33;;;4.60;;
64957;SDS011;51486;50.232;19.208;2023-08-12T04:19:27;7.57;;;4.30;;
64957;SDS011;51486;50.232;19.208;2023-08-12T04:21:52;5.67;;;3.73;;
64957;SDS011;51486;50.232;19.208;2023-08-12T04:24:18;8.60;;;4.20;;
64957;SDS011;51486;50.232;19.208;2023-08-12T04:26:43;6.63;;;4.10;;
64957;SDS011;51486;50.232;19.208;2023-08-12T04:29:08;7.90;;;4.23;;
64957;SDS011;51486;50.232;19.208;2023-08-12T04:31:34;7.33;;;3.90;;
64957;SDS011;51486;50.232;19.208;2023-08-12T04:33:59;7.70;;;4.40;;
64957;SDS011;51486;50.232;19.208;2023-08-12T04:36:25;9.47;;;5.03;;
64957;SDS011;51486;50.232;19.208;2023-08-12T04:38:50;10.20;;;4.87;;
64957;SDS011;51486;50.232;19.208;2023-08-12T04:41:15;8.50;;;3.87;;
64957;SDS011;51486;50.232;19.208;2023-08-12T04:43:41;6.53;;;4.03;;
64957;SDS011;51486;50.232;19.208;2023-08-12T04:46:07;8.60;;;5.07;;
64957;SDS011;51486;50.232;19.208;2023-08-12T04:48:33;11.93;;;5.17;;
64957;SDS011;51486;50.232;19.208;2023-08-12T04:50:58;7.17;;;4.47;;
64957;SDS011;51486;50.232;19.208;2023-08-12T04:53:26;10.97;;;5.47;;
64957;SDS011;51486;50.232;19.208;2023-08-12T04:55:52;7.43;;;5.00;;
64957;SDS011;51486;50.232;19.208;2023-08-12T04:58:17;8.57;;;4.87;;
64957;SDS011;51486;50.232;19.208;2023-08-12T05:00:42;9.77;;;5.07;;
64957;SDS011;51486;50.232;19.208;2023-08-12T05:03:08;9.83;;;5.37;;
64957;SDS011;51486;50.232;19.208;2023-08-12T05:05:33;11.97;;;5.07;;
64957;SDS011;51486;50.232;19.208;2023-08-12T05:07:59;9.70;;;5.30;;
64957;SDS011;51486;50.232;19.208;2023-08-12T05:10:24;9.47;;;5.50;;
64957;SDS011;51486;50.232;19.208;2023-08-12T05:12:49;11.03;;;5.23;;
64957;SDS011;51486;50.232;19.208;2023-08-12T05:15:17;8.30;;;5.83;;
64957;SDS011;51486;50.232;19.208;2023-08-12T05:17:42;10.90;;;6.03;;
64957;SDS011;51486;50.232;19.208;2023-08-12T05:20:08;13.67;;;6.73;;
64957;SDS011;51486;50.232;19.208;2023-08-12T05:22:33;14.20;;;7.23;;
64957;SDS011;51486;50.232;19.208;2023-08-12T05:24:59;22.43;;;5.83;;
64957;SDS011;51486;50.232;19.208;2023-08-12T05:27:24;13.07;;;7.03;;
64957;SDS011;51486;50.232;19.208;2023-08-12T05:29:49;13.20;;;6.40;;
64957;SDS011;51486;50.232;19.208;2023-08-12T05:32:15;11.27;;;7.07;;
64957;SDS011;51486;50.232;19.208;2023-08-12T05:34:40;13.03;;;6.83;;
64957;SDS011;51486;50.232;19.208;2023-08-12T05:37:05;29.53;;;7.50;;
64957;SDS011;51486;50.232;19.208;2023-08-12T05:39:31;11.20;;;6.60;;
64957;SDS011;51486;50.232;19.208;2023-08-12T05:41:56;13.23;;;8.17;;
64957;SDS011;51486;50.232;19.208;2023-08-12T05:44:21;23.67;;;10.60;;
64957;SDS011;51486;50.232;19.208;2023-08-12T05:46:47;14.70;;;7.43;;
64957;SDS011;51486;50.232;19.208;2023-08-12T05:49:12;12.23;;;7.17;;
64957;SDS011;51486;50.232;19.208;2023-08-12T05:51:38;11.00;;;6.40;;
64957;SDS011;51486;50.232;19.208;2023-08-12T05:54:03;20.00;;;6.77;;
64957;SDS011;51486;50.232;19.208;2023-08-12T05:56:29;14.07;;;6.20;;
64957;SDS011;51486;50.232;19.208;2023-08-12T05:58:55;10.53;;;5.70;;
64957;SDS011;51486;50.232;19.208;2023-08-12T06:01:20;10.83;;;6.27;;
64957;SDS011;51486;50.232;19.208;2023-08-12T06:03:45;10.50;;;5.70;;
64957;SDS011;51486;50.232;19.208;2023-08-12T06:06:11;9.53;;;5.53;;
64957;SDS011;51486;50.232;19.208;2023-08-12T06:08:36;13.03;;;6.00;;
64957;SDS011;51486;50.232;19.208;2023-08-12T06:11:02;9.40;;;5.90;;
64957;SDS011;51486;50.232;19.208;2023-08-12T06:13:27;14.53;;;6.10;;
64957;SDS011;51486;50.232;19.208;2023-08-12T06:15:52;11.17;;;5.70;;
64957;SDS011;51486;50.232;19.208;2023-08-12T06:18:18;12.20;;;5.90;;
64957;SDS011;51486;50.232;19.208;2023-08-12T06:20:43;12.80;;;6.63;;
64957;SDS011;51486;50.232;19.208;2023-08-12T06:23:08;11.40;;;6.17;;
64957;SDS011;51486;50.232;19.208;2023-08-12T06:25:34;12.07;;;5.93;;
64957;SDS011;51486;50.232;19.208;2023-08-12T06:28:01;13.93;;;6.53;;
64957;SDS011;51486;50.232;19.208;2023-08-12T06:30:29;11.80;;;6.20;;
64957;SDS011;51486;50.232;19.208;2023-08-12T06:32:54;10.70;;;6.10;;
64957;SDS011;51486;50.232;19.208;2023-08-12T06:35:19;13.70;;;5.97;;
64957;SDS011;51486;50.232;19.208;2023-08-12T06:37:45;10.60;;;5.33;;
64957;SDS011;51486;50.232;19.208;2023-08-12T06:40:10;8.93;;;5.60;;
64957;SDS011;51486;50.232;19.208;2023-08-12T06:42:35;14.10;;;6.67;;
64957;SDS011;51486;50.232;19.208;2023-08-12T06:45:01;10.93;;;5.97;;
64957;SDS011;51486;50.232;19.208;2023-08-12T06:47:28;15.30;;;5.97;;
64957;SDS011;51486;50.232;19.208;2023-08-12T06:49:54;14.97;;;5.43;;
64957;SDS011;51486;50.232;19.208;2023-08-12T06:52:20;17.60;;;5.73;;
64957;SDS011;51486;50.232;19.208;2023-08-12T06:54:45;9.03;;;4.07;;
64957;SDS011;51486;50.232;19.208;2023-08-12T06:57:11;13.70;;;5.43;;
64957;SDS011;51486;50.232;19.208;2023-08-12T06:59:37;8.30;;;4.20;;
64957;SDS011;51486;50.232;19.208;2023-08-12T07:02:02;4.67;;;3.67;;
64957;SDS011;51486;50.232;19.208;2023-08-12T07:04:28;14.37;;;4.90;;
64957;SDS011;51486;50.232;19.208;2023-08-12T07:06:53;16.97;;;4.60;;
64957;SDS011;51486;50.232;19.208;2023-08-12T07:09:19;7.80;;;4.07;;
64957;SDS011;51486;50.232;19.208;2023-08-12T07:11:44;9.10;;;4.60;;
64957;SDS011;51486;50.232;19.208;2023-08-12T07:14:09;7.80;;;4.07;;
64957;SDS011;51486;50.232;19.208;2023-08-12T07:16:35;11.80;;;5.00;;
64957;SDS011;51486;50.232;19.208;2023-08-12T07:19:00;8.70;;;3.73;;
64957;SDS011;51486;50.232;19.208;2023-08-12T07:21:26;11.70;;;3.53;;
64957;SDS011;51486;50.232;19.208;2023-08-12T07:23:51;7.03;;;3.03;;
64957;SDS011;51486;50.232;19.208;2023-08-12T07:26:17;6.40;;;3.20;;
64957;SDS011;51486;50.232;19.208;2023-08-12T07:28:42;4.97;;;3.27;;
64957;SDS011;51486;50.232;19.208;2023-08-12T07:31:07;5.73;;;3.23;;
64957;SDS011;51486;50.232;19.208;2023-08-12T07:33:33;9.37;;;3.27;;
64957;SDS011;51486;50.232;19.208;2023-08-12T07:35:59;6.97;;;3.73;;
64957;SDS011;51486;50.232;19.208;2023-08-12T07:38:24;4.07;;;2.93;;
64957;SDS011;51486;50.232;19.208;2023-08-12T07:40:50;9.47;;;2.90;;
64957;SDS011;51486;50.232;19.208;2023-08-12T07:43:15;6.53;;;3.73;;
64957;SDS011;51486;50.232;19.208;2023-08-12T07:45:40;7.03;;;3.33;;
64957;SDS011;51486;50.232;19.208;2023-08-12T07:48:06;7.20;;;3.27;;
64957;SDS011;51486;50.232;19.208;2023-08-12T07:50:31;9.67;;;3.47;;
64957;SDS011;51486;50.232;19.208;2023-08-12T07:52:57;4.90;;;2.80;;
64957;SDS011;51486;50.232;19.208;2023-08-12T07:55:22;5.33;;;3.20;;
64957;SDS011;51486;50.232;19.208;2023-08-12T07:57:47;6.00;;;2.80;;
64957;SDS011;51486;50.232;19.208;2023-08-12T08:00:13;7.87;;;3.43;;
64957;SDS011;51486;50.232;19.208;2023-08-12T08:02:38;5.67;;;3.17;;
64957;SDS011;51486;50.232;19.208;2023-08-12T08:05:04;7.77;;;2.50;;
64957;SDS011;51486;50.232;19.208;2023-08-12T08:07:30;5.17;;;2.70;;
64957;SDS011;51486;50.232;19.208;2023-08-12T08:09:57;4.80;;;2.73;;
64957;SDS011;51486;50.232;19.208;2023-08-12T08:12:22;4.83;;;2.87;;
64957;SDS011;51486;50.232;19.208;2023-08-12T08:14:47;6.43;;;3.10;;
64957;SDS011;51486;50.232;19.208;2023-08-12T08:17:13;5.23;;;3.00;;
64957;SDS011;51486;50.232;19.208;2023-08-12T08:19:38;5.87;;;2.87;;
64957;SDS011;51486;50.232;19.208;2023-08-12T08:22:04;9.53;;;3.13;;
64957;SDS011;51486;50.232;19.208;2023-08-12T08:24:30;5.00;;;2.63;;
64957;SDS011;51486;50.232;19.208;2023-08-12T08:26:55;5.93;;;3.13;;
64957;SDS011;51486;50.232;19.208;2023-08-12T08:29:20;4.38;;;2.40;;
64957;SDS011;51486;50.232;19.208;2023-08-12T08:31:46;12.75;;;3.10;;
64957;SDS011;51486;50.232;19.208;2023-08-12T08:34:12;6.00;;;2.38;;
64957;SDS011;51486;50.232;19.208;2023-08-12T08:36:37;7.10;;;2.67;;
64957;SDS011;51486;50.232;19.208;2023-08-12T08:39:02;4.47;;;2.00;;
64957;SDS011;51486;50.232;19.208;2023-08-12T08:41:29;2.60;;;1.75;;
64957;SDS011;51486;50.232;19.208;2023-08-12T08:43:55;3.97;;;1.80;;
64957;SDS011;51486;50.232;19.208;2023-08-12T08:46:27;2.17;;;1.25;;
64957;SDS011;51486;50.232;19.208;2023-08-12T08:48:53;4.10;;;1.83;;
64957;SDS011;51486;50.232;19.208;2023-08-12T08:51:20;7.90;;;1.90;;
64957;SDS011;51486;50.232;19.208;2023-08-12T08:53:45;2.85;;;1.60;;
64957;SDS011;51486;50.232;19.208;2023-08-12T08:56:12;3.38;;;1.77;;
64957;SDS011;51486;50.232;19.208;2023-08-12T08:58:40;3.00;;;1.73;;
64957;SDS011;51486;50.232;19.208;2023-08-12T09:01:06;5.25;;;2.38;;
64957;SDS011;51486;50.232;19.208;2023-08-12T09:03:33;2.55;;;1.85;;
64957;SDS011;51486;50.232;19.208;2023-08-12T09:06:00;2.63;;;1.70;;
64957;SDS011;51486;50.232;19.208;2023-08-12T09:08:25;2.58;;;1.52;;
64957;SDS011;51486;50.232;19.208;2023-08-12T09:10:53;5.18;;;1.85;;
64957;SDS011;51486;50.232;19.208;2023-08-12T09:13:20;1.98;;;1.35;;
64957;SDS011;51486;50.232;19.208;2023-08-12T09:15:45;2.65;;;1.90;;
64957;SDS011;51486;50.232;19.208;2023-08-12T09:18:10;5.82;;;1.95;;
64957;SDS011;51486;50.232;19.208;2023-08-12T09:20:36;3.80;;;2.00;;
64957;SDS011;51486;50.232;19.208;2023-08-12T09:23:02;4.85;;;1.73;;
64957;SDS011;51486;50.232;19.208;2023-08-12T09:25:28;2.83;;;2.05;;
64957;SDS011;51486;50.232;19.208;2023-08-12T09:28:00;1.63;;;1.38;;
64957;SDS011;51486;50.232;19.208;2023-08-12T09:30:28;2.35;;;1.42;;
64957;SDS011;51486;50.232;19.208;2023-08-12T09:33:01;4.72;;;1.90;;
64957;SDS011;51486;50.232;19.208;2023-08-12T09:35:38;3.00;;;1.77;;
64957;SDS011;51486;50.232;19.208;2023-08-12T09:38:06;2.13;;;1.33;;
64957;SDS011;51486;50.232;19.208;2023-08-12T09:40:33;4.25;;;1.98;;
64957;SDS011;51486;50.232;19.208;2023-08-12T09:43:00;2.17;;;1.50;;
64957;SDS011;51486;50.232;19.208;2023-08-12T09:45:26;2.20;;;1.40;;
64957;SDS011;51486;50.232;19.208;2023-08-12T09:47:52;1.98;;;1.25;;
64957;SDS011;51486;50.232;19.208;2023-08-12T09:50:20;4.07;;;1.70;;
64957;SDS011;51486;50.232;19.208;2023-08-12T09:52:47;1.70;;;1.27;;
64957;SDS011;51486;50.232;19.208;2023-08-12T09:55:12;3.13;;;1.65;;
64957;SDS011;51486;50.232;19.208;2023-08-12T09:57:42;1.58;;;1.20;;
64957;SDS011;51486;50.232;19.208;2023-08-12T10:00:08;4.10;;;1.80;;
64957;SDS011;51486;50.232;19.208;2023-08-12T10:02:39;1.33;;;1.10;;
64957;SDS011;51486;50.232;19.208;2023-08-12T10:05:05;2.42;;;1.55;;
64957;SDS011;51486;50.232;19.208;2023-08-12T10:07:34;3.40;;;1.65;;
64957;SDS011;51486;50.232;19.208;2023-08-12T10:10:00;2.67;;;1.38;;
64957;SDS011;51486;50.232;19.208;2023-08-12T10:12:26;1.85;;;1.30;;
64957;SDS011;51486;50.232;19.208;2023-08-12T10:14:51;2.30;;;1.55;;
64957;SDS011;51486;50.232;19.208;2023-08-12T10:17:17;1.75;;;1.40;;
64957;SDS011;51486;50.232;19.208;2023-08-12T10:19:43;5.78;;;1.33;;
64957;SDS011;51486;50.232;19.208;2023-08-12T10:22:09;1.92;;;1.45;;
64957;SDS011;51486;50.232;19.208;2023-08-12T10:24:35;3.03;;;1.88;;
64957;SDS011;51486;50.232;19.208;2023-08-12T10:27:01;1.83;;;1.00;;
64957;SDS011;51486;50.232;19.208;2023-08-12T10:29:28;3.88;;;1.50;;
64957;SDS011;51486;50.232;19.208;2023-08-12T10:31:55;2.05;;;1.33;;
64957;SDS011;51486;50.232;19.208;2023-08-12T10:34:22;2.75;;;1.65;;
64957;SDS011;51486;50.232;19.208;2023-08-12T10:36:48;4.28;;;1.40;;
64957;SDS011;51486;50.232;19.208;2023-08-12T10:39:21;1.58;;;1.05;;
64957;SDS011;51486;50.232;19.208;2023-08-12T10:41:50;1.60;;;1.20;;
64957;SDS011;51486;50.232;19.208;2023-08-12T10:44:19;2.17;;;1.30;;
64957;SDS011;51486;50.232;19.208;2023-08-12T10:46:52;10.80;;;1.40;;
64957;SDS011;51486;50.232;19.208;2023-08-12T10:49:18;2.10;;;1.10;;
64957;SDS011;51486;50.232;19.208;2023-08-12T10:51:46;2.75;;;1.52;;
64957;SDS011;51486;50.232;19.208;2023-08-12T11:02:18;6.88;;;2.05;;
64957;SDS011;51486;50.232;19.208;2023-08-12T11:07:20;2.22;;;1.38;;
64957;SDS011;51486;50.232;19.208;2023-08-12T11:09:52;2.53;;;1.25;;
64957;SDS011;51486;50.232;19.208;2023-08-12T11:12:18;2.50;;;1.83;;
64957;SDS011;51486;50.232;19.208;2023-08-12T11:14:53;1.70;;;1.00;;
64957;SDS011;51486;50.232;19.208;2023-08-12T11:17:18;2.03;;;1.33;;
64957;SDS011;51486;50.232;19.208;2023-08-12T11:19:44;1.60;;;1.20;;
64957;SDS011;51486;50.232;19.208;2023-08-12T11:22:09;2.45;;;1.30;;
64957;SDS011;51486;50.232;19.208;2023-08-12T11:24:38;1.65;;;1.20;;
64957;SDS011;51486;50.232;19.208;2023-08-12T11:27:08;3.03;;;1.25;;
64957;SDS011;51486;50.232;19.208;2023-08-12T11:29:34;1.50;;;0.93;;
64957;SDS011;51486;50.232;19.208;2023-08-12T11:32:00;1.50;;;1.08;;
64957;SDS011;51486;50.232;19.208;2023-08-12T11:34:25;1.75;;;0.93;;
64957;SDS011;51486;50.232;19.208;2023-08-12T11:36:51;1.23;;;0.98;;
64957;SDS011;51486;50.232;19.208;2023-08-12T11:39:17;1.05;;;0.82;;
64957;SDS011;51486;50.232;19.208;2023-08-12T11:41:42;1.58;;;1.20;;
64957;SDS011;51486;50.232;19.208;2023-08-12T11:44:11;2.75;;;1.10;;
64957;SDS011;51486;50.232;19.208;2023-08-12T11:46:40;2.88;;;1.42;;
64957;SDS011;51486;50.232;19.208;2023-08-12T11:49:05;1.98;;;1.33;;
64957;SDS011;51486;50.232;19.208;2023-08-12T11:51:30;1.13;;;0.90;;
64957;SDS011;51486;50.232;19.208;2023-08-12T11:53:56;1.27;;;1.05;;
64957;SDS011;51486;50.232;19.208;2023-08-12T11:56:21;1.75;;;1.17;;
64957;SDS011;51486;50.232;19.208;2023-08-12T11:58:50;1.33;;;1.00;;
64957;SDS011;51486;50.232;19.208;2023-08-12T12:01:18;1.20;;;1.02;;
64957;SDS011;51486;50.232;19.208;2023-08-12T12:03:43;6.82;;;1.17;;
64957;SDS011;51486;50.232;19.208;2023-08-12T12:06:08;2.00;;;1.20;;
64957;SDS011;51486;50.232;19.208;2023-08-12T12:08:34;1.33;;;0.88;;
64957;SDS011;51486;50.232;19.208;2023-08-12T12:11:05;10.32;;;1.40;;
64957;SDS011;51486;50.232;19.208;2023-08-12T12:13:31;7.55;;;1.05;;
64957;SDS011;51486;50.232;19.208;2023-08-12T12:15:57;1.02;;;0.90;;
64957;SDS011;51486;50.232;19.208;2023-08-12T12:18:24;1.25;;;0.90;;
64957;SDS011;51486;50.232;19.208;2023-08-12T12:20:56;0.82;;;0.75;;
64957;SDS011;51486;50.232;19.208;2023-08-12T12:23:26;1.10;;;0.90;;
64957;SDS011;51486;50.232;19.208;2023-08-12T12:28:24;1.85;;;1.15;;
64957;SDS011;51486;50.232;19.208;2023-08-12T12:30:49;2.88;;;1.08;;
64957;SDS011;51486;50.232;19.208;2023-08-12T12:33:14;0.80;;;0.80;;
64957;SDS011;51486;50.232;19.208;2023-08-12T12:35:40;1.17;;;0.75;;
64957;SDS011;51486;50.232;19.208;2023-08-12T12:38:05;1.35;;;0.73;;
64957;SDS011;51486;50.232;19.208;2023-08-12T12:40:31;0.95;;;0.80;;
64957;SDS011;51486;50.232;19.208;2023-08-12T12:42:56;1.63;;;1.30;;
64957;SDS011;51486;50.232;19.208;2023-08-12T12:45:21;2.10;;;1.13;;
64957;SDS011;51486;50.232;19.208;2023-08-12T12:47:47;2.42;;;1.20;;
64957;SDS011;51486;50.232;19.208;2023-08-12T12:50:12;2.70;;;0.85;;
64957;SDS011;51486;50.232;19.208;2023-08-12T12:52:37;1.02;;;0.82;;
64957;SDS011;51486;50.232;19.208;2023-08-12T12:55:03;1.35;;;0.93;;
64957;SDS011;51486;50.232;19.208;2023-08-12T12:57:29;2.10;;;0.90;;
64957;SDS011;51486;50.232;19.208;2023-08-12T12:59:54;1.25;;;1.05;;
64957;SDS011;51486;50.232;19.208;2023-08-12T13:02:20;2.35;;;1.20;;
64957;SDS011;51486;50.232;19.208;2023-08-12T13:04:45;4.35;;;1.25;;
64957;SDS011;51486;50.232;19.208;2023-08-12T13:07:11;1.08;;;0.80;;
64957;SDS011;51486;50.232;19.208;2023-08-12T13:09:36;2.85;;;1.10;;
64957;SDS011;51486;50.232;19.208;2023-08-12T13:12:01;1.38;;;0.98;;
64957;SDS011;51486;50.232;19.208;2023-08-12T13:14:27;1.42;;;1.00;;
64957;SDS011;51486;50.232;19.208;2023-08-12T13:16:55;4.97;;;1.25;;
64957;SDS011;51486;50.232;19.208;2023-08-12T13:19:20;1.65;;;1.08;;
64957;SDS011;51486;50.232;19.208;2023-08-12T13:21:46;1.08;;;0.90;;
64957;SDS011;51486;50.232;19.208;2023-08-12T13:24:11;1.17;;;1.08;;
64957;SDS011;51486;50.232;19.208;2023-08-12T13:26:37;1.42;;;1.17;;
64957;SDS011;51486;50.232;19.208;2023-08-12T13:29:02;2.03;;;1.23;;
64957;SDS011;51486;50.232;19.208;2023-08-12T13:31:28;1.27;;;0.88;;
64957;SDS011;51486;50.232;19.208;2023-08-12T13:33:54;4.30;;;1.38;;
64957;SDS011;51486;50.232;19.208;2023-08-12T13:36:19;0.95;;;0.85;;
64957;SDS011;51486;50.232;19.208;2023-08-12T13:38:45;1.40;;;1.10;;
64957;SDS011;51486;50.232;19.208;2023-08-12T13:41:10;2.40;;;1.00;;
64957;SDS011;51486;50.232;19.208;2023-08-12T13:43:35;0.80;;;0.73;;
64957;SDS011;51486;50.232;19.208;2023-08-12T13:46:01;1.10;;;0.80;;
64957;SDS011;51486;50.232;19.208;2023-08-12T13:48:26;1.42;;;1.05;;
64957;SDS011;51486;50.232;19.208;2023-08-12T13:50:52;1.58;;;0.90;;
64957;SDS011;51486;50.232;19.208;2023-08-12T13:53:18;3.45;;;1.35;;
64957;SDS011;51486;50.232;19.208;2023-08-12T13:55:44;2.45;;;0.80;;
64957;SDS011;51486;50.232;19.208;2023-08-12T13:58:10;1.30;;;1.08;;
64957;SDS011;51486;50.232;19.208;2023-08-12T14:00:36;4.07;;;1.50;;
64957;SDS011;51486;50.232;19.208;2023-08-12T14:03:01;1.15;;;0.80;;
64957;SDS011;51486;50.232;19.208;2023-08-12T14:05:27;1.58;;;1.15;;
64957;SDS011;51486;50.232;19.208;2023-08-12T14:07:52;1.05;;;0.95;;
64957;SDS011;51486;50.232;19.208;2023-08-12T14:10:18;1.40;;;1.08;;
64957;SDS011;51486;50.232;19.208;2023-08-12T14:12:43;1.20;;;0.80;;
64957;SDS011;51486;50.232;19.208;2023-08-12T14:15:10;0.90;;;0.70;;
64957;SDS011;51486;50.232;19.208;2023-08-12T14:17:35;0.80;;;0.75;;
64957;SDS011;51486;50.232;19.208;2023-08-12T14:20:01;1.35;;;0.93;;
64957;SDS011;51486;50.232;19.208;2023-08-12T14:22:26;1.45;;;1.23;;
64957;SDS011;51486;50.232;19.208;2023-08-12T14:24:52;2.35;;;1.20;;
64957;SDS011;51486;50.232;19.208;2023-08-12T14:27:18;1.00;;;0.90;;
64957;SDS011;51486;50.232;19.208;2023-08-12T14:29:43;1.27;;;0.93;;
64957;SDS011;51486;50.232;19.208;2023-08-12T14:32:09;2.70;;;1.30;;
64957;SDS011;51486;50.232;19.208;2023-08-12T14:34:35;2.63;;;1.10;;
64957;SDS011;51486;50.232;19.208;2023-08-12T14:37:01;1.33;;;0.70;;
64957;SDS011;51486;50.232;19.208;2023-08-12T14:39:27;1.30;;;1.10;;
64957;SDS011;51486;50.232;19.208;2023-08-12T14:41:52;2.97;;;1.65;;